createdAt,value
2023-03-30T00:01:17.200Z,15.80
2023-03-30T00:03:47.278Z,15.70
2023-03-30T00:06:22.234Z,15.80
2023-03-30T00:08:53.627Z,15.80
2023-03-30T00:11:23.675Z,15.80
2023-03-30T00:13:52.697Z,15.80
2023-03-30T00:16:21.902Z,15.50
2023-03-30T00:18:52.362Z,15.80
2023-03-30T00:21:21.223Z,15.90
2023-03-30T00:23:50.335Z,15.90
2023-03-30T00:26:18.442Z,16.00
2023-03-30T00:28:48.375Z,15.80
2023-03-30T00:31:17.311Z,15.80
2023-03-30T00:33:47.389Z,15.60
2023-03-30T00:36:17.168Z,15.70
2023-03-30T00:38:48.164Z,15.70
2023-03-30T00:41:17.725Z,15.60
2023-03-30T00:44:01.078Z,15.50
2023-03-30T00:46:31.527Z,15.70
2023-03-30T00:49:05.134Z,15.80
2023-03-30T00:51:37.859Z,15.80
2023-03-30T00:54:10.302Z,15.80
2023-03-30T00:56:40.320Z,15.60
2023-03-30T00:59:10.358Z,15.60
2023-03-30T01:01:42.911Z,15.60
2023-03-30T01:04:13.619Z,15.70
2023-03-30T01:06:46.697Z,15.50
2023-03-30T01:09:16.848Z,15.50
2023-03-30T01:11:45.478Z,15.60
2023-03-30T01:14:16.158Z,15.90
2023-03-30T01:16:52.968Z,15.70
2023-03-30T01:19:53.674Z,15.80
2023-03-30T01:22:50.625Z,15.60
2023-03-30T01:26:04.681Z,15.80
2023-03-30T01:28:53.084Z,15.80
2023-03-30T01:31:51.475Z,15.70
2023-03-30T01:34:49.499Z,15.70
2023-03-30T01:37:45.618Z,16.00
2023-03-30T01:40:17.576Z,16.00
2023-03-30T01:42:55.900Z,16.00
2023-03-30T01:45:33.480Z,15.90
2023-03-30T01:48:09.819Z,15.80
2023-03-30T01:50:43.153Z,15.80
2023-03-30T01:53:17.473Z,15.70
2023-03-30T01:55:53.537Z,15.90
2023-03-30T01:58:28.045Z,15.50
2023-03-30T02:00:58.062Z,15.70
2023-03-30T02:03:29.300Z,15.90
2023-03-30T02:06:06.154Z,15.90
2023-03-30T02:08:36.859Z,15.80
2023-03-30T02:11:08.053Z,15.70
2023-03-30T02:13:39.663Z,15.60
2023-03-30T02:16:14.396Z,15.90
2023-03-30T02:18:48.099Z,15.90
2023-03-30T02:21:16.530Z,15.90
2023-03-30T02:23:47.575Z,16.00
2023-03-30T02:26:17.167Z,16.10
2023-03-30T02:28:47.889Z,16.20
2023-03-30T02:31:18.198Z,16.40
2023-03-30T02:34:00.995Z,16.30
2023-03-30T02:36:46.941Z,16.00
2023-03-30T02:39:30.817Z,16.10
2023-03-30T02:42:29.004Z,16.20
2023-03-30T02:45:15.197Z,16.40
2023-03-30T02:47:58.942Z,16.20
2023-03-30T02:50:34.857Z,16.20
2023-03-30T02:53:18.710Z,16.20
2023-03-30T02:55:54.099Z,16.40
2023-03-30T02:58:35.639Z,16.50
2023-03-30T03:01:18.603Z,16.40
2023-03-30T03:03:59.453Z,16.40
2023-03-30T03:06:33.189Z,16.50
2023-03-30T03:09:03.612Z,16.40
2023-03-30T03:11:34.156Z,16.20
2023-03-30T03:14:04.968Z,16.30
2023-03-30T03:16:36.546Z,16.20
2023-03-30T03:19:11.719Z,16.40
2023-03-30T03:21:47.846Z,16.40
2023-03-30T03:24:17.804Z,16.30
2023-03-30T03:27:05.207Z,16.40
2023-03-30T03:29:45.192Z,16.20
2023-03-30T03:32:14.984Z,16.10
2023-03-30T03:34:48.729Z,16.10
2023-03-30T03:37:17.668Z,16.10
2023-03-30T03:39:47.589Z,16.10
2023-03-30T03:42:17.622Z,16.20
2023-03-30T03:44:57.165Z,16.00
2023-03-30T03:47:25.790Z,16.00
2023-03-30T03:49:54.973Z,16.00
2023-03-30T03:52:23.986Z,16.00
2023-03-30T03:54:54.974Z,15.90
2023-03-30T03:57:24.891Z,16.00
2023-03-30T03:59:54.804Z,16.10
2023-03-30T04:02:25.459Z,16.30
2023-03-30T04:04:54.685Z,16.20
2023-03-30T04:07:26.972Z,16.40
2023-03-30T04:09:57.336Z,16.10
2023-03-30T04:12:39.606Z,16.10
2023-03-30T04:15:28.846Z,16.20
2023-03-30T04:18:16.053Z,16.30
2023-03-30T04:20:52.863Z,16.40
2023-03-30T04:23:37.749Z,16.50
2023-03-30T04:26:32.658Z,16.50
2023-03-30T04:29:22.801Z,16.60
2023-03-30T04:32:05.274Z,16.60
2023-03-30T04:35:08.230Z,16.60
2023-03-30T04:37:59.027Z,16.40
2023-03-30T04:44:15.094Z,16.10
2023-03-30T04:47:16.703Z,16.20
2023-03-30T04:50:16.005Z,16.30
2023-03-30T04:53:03.725Z,16.50
2023-03-30T04:55:53.060Z,16.40
2023-03-30T04:58:41.041Z,16.70
2023-03-30T05:01:25.272Z,16.80
2023-03-30T05:03:57.271Z,16.70
2023-03-30T05:06:50.114Z,16.80
2023-03-30T05:09:45.808Z,17.00
2023-03-30T05:12:30.075Z,17.00
2023-03-30T05:15:09.874Z,16.90
2023-03-30T05:17:56.567Z,17.00
2023-03-30T05:20:44.938Z,17.10
2023-03-30T05:23:33.861Z,16.90
2023-03-30T05:26:31.571Z,16.90
2023-03-30T05:29:29.034Z,17.00
2023-03-30T05:32:15.763Z,16.80
2023-03-30T05:34:53.814Z,16.80
2023-03-30T05:37:34.208Z,16.50
2023-03-30T05:40:25.346Z,16.30
2023-03-30T05:43:12.276Z,16.20
2023-03-30T05:46:02.244Z,16.10
2023-03-30T05:48:48.381Z,16.00
2023-03-30T05:51:26.369Z,15.90
2023-03-30T05:54:16.068Z,15.90
2023-03-30T05:57:01.295Z,15.90
2023-03-30T05:59:42.033Z,15.80
2023-03-30T06:02:25.031Z,15.90
2023-03-30T06:04:58.618Z,16.10
2023-03-30T06:07:27.149Z,16.00
2023-03-30T06:09:55.847Z,15.80
2023-03-30T06:12:29.893Z,15.60
2023-03-30T06:14:59.109Z,15.60
2023-03-30T06:17:35.648Z,15.60
2023-03-30T06:20:11.641Z,15.60
2023-03-30T06:22:42.924Z,15.70
2023-03-30T06:25:16.612Z,15.80
2023-03-30T06:27:46.274Z,15.80
2023-03-30T06:30:20.084Z,15.80
2023-03-30T06:32:55.273Z,15.80
2023-03-30T06:35:27.699Z,15.60
2023-03-30T06:37:56.626Z,15.60
2023-03-30T06:40:27.142Z,15.70
2023-03-30T06:42:57.928Z,15.70
2023-03-30T06:45:29.887Z,15.90
2023-03-30T06:47:59.748Z,16.00
2023-03-30T06:50:28.415Z,16.00
2023-03-30T06:52:59.914Z,16.10
2023-03-30T06:55:33.469Z,15.80
2023-03-30T06:58:04.200Z,15.80
2023-03-30T07:00:35.552Z,15.70
2023-03-30T07:03:24.336Z,15.60
2023-03-30T07:06:07.304Z,15.60
2023-03-30T07:08:38.599Z,15.70
2023-03-30T07:11:07.714Z,15.80
2023-03-30T07:13:40.399Z,15.70
2023-03-30T07:16:09.514Z,15.70
2023-03-30T07:18:38.682Z,15.80
2023-03-30T07:21:08.073Z,15.90
2023-03-30T07:23:41.895Z,16.00
2023-03-30T07:26:12.128Z,16.00
2023-03-30T07:28:59.513Z,16.20
2023-03-30T07:31:30.881Z,16.30
2023-03-30T07:33:59.060Z,16.20
2023-03-30T07:36:38.123Z,16.10
2023-03-30T07:39:09.004Z,15.80
2023-03-30T07:41:40.718Z,15.90
2023-03-30T07:44:10.151Z,15.90
2023-03-30T07:46:40.146Z,15.90
2023-03-30T07:49:10.282Z,15.80
2023-03-30T07:51:43.296Z,15.70
2023-03-30T07:54:20.904Z,15.80
2023-03-30T07:57:09.089Z,15.80
2023-03-30T07:59:38.990Z,15.60
2023-03-30T08:02:41.621Z,15.60
2023-03-30T08:05:19.194Z,15.40
2023-03-30T08:07:57.026Z,15.50
2023-03-30T08:10:37.173Z,15.50
2023-03-30T08:13:05.842Z,15.50
2023-03-30T08:15:35.255Z,15.50
2023-03-30T08:18:06.704Z,15.40
2023-03-30T08:20:39.162Z,15.50
2023-03-30T08:23:08.138Z,15.60
2023-03-30T08:25:36.390Z,15.40
2023-03-30T08:28:07.125Z,15.40
2023-03-30T08:30:36.678Z,15.60
2023-03-30T08:33:06.162Z,15.40
2023-03-30T08:35:34.695Z,15.50
2023-03-30T08:38:02.963Z,15.40
2023-03-30T08:40:32.569Z,15.30
2023-03-30T08:43:17.049Z,15.20
2023-03-30T08:45:46.622Z,15.20
2023-03-30T08:48:19.943Z,15.20
2023-03-30T08:50:54.588Z,15.00
2023-03-30T08:53:27.995Z,15.00
2023-03-30T08:56:02.325Z,15.00
2023-03-30T08:58:41.614Z,15.00
2023-03-30T09:01:19.907Z,15.10
2023-03-30T09:04:06.473Z,15.10
2023-03-30T09:06:46.561Z,15.10
2023-03-30T09:09:19.010Z,15.20
2023-03-30T09:11:50.591Z,15.40
2023-03-30T09:14:32.844Z,15.30
2023-03-30T09:17:08.588Z,15.40
2023-03-30T09:19:48.458Z,15.30
2023-03-30T09:22:17.300Z,15.40
2023-03-30T09:24:45.401Z,15.30
2023-03-30T09:27:20.194Z,15.40
2023-03-30T09:29:51.432Z,15.50
2023-03-30T09:32:29.112Z,15.70
2023-03-30T09:35:02.193Z,15.90
2023-03-30T09:37:32.159Z,15.80
2023-03-30T09:40:03.216Z,15.80
2023-03-30T09:42:38.948Z,15.80
2023-03-30T09:45:12.799Z,15.90
2023-03-30T09:47:44.054Z,16.10
2023-03-30T09:50:17.606Z,16.00
2023-03-30T09:52:58.170Z,15.70
2023-03-30T09:55:29.723Z,15.70
2023-03-30T09:58:17.856Z,15.70
2023-03-30T10:00:46.933Z,15.70
2023-03-30T10:03:24.974Z,15.80
2023-03-30T10:06:03.886Z,15.30
2023-03-30T10:08:33.146Z,15.30
2023-03-30T10:11:05.964Z,15.20
2023-03-30T10:13:38.394Z,15.00
2023-03-30T10:16:12.189Z,14.70
2023-03-30T10:18:46.191Z,14.40
2023-03-30T10:21:23.131Z,14.40
2023-03-30T10:24:04.305Z,14.30
2023-03-30T10:26:34.568Z,14.40
2023-03-30T10:29:05.340Z,14.40
2023-03-30T10:31:37.194Z,14.30
2023-03-30T10:34:18.642Z,14.20
2023-03-30T10:36:50.801Z,14.20
2023-03-30T10:39:25.161Z,13.90
2023-03-30T10:41:54.657Z,13.90
2023-03-30T10:44:26.965Z,13.90
2023-03-30T10:47:03.988Z,13.70
2023-03-30T10:49:44.552Z,13.90
2023-03-30T10:52:20.365Z,14.30
2023-03-30T10:54:56.832Z,14.40
2023-03-30T10:57:33.492Z,14.70
2023-03-30T11:00:14.802Z,14.30
2023-03-30T11:03:04.551Z,14.30
2023-03-30T11:05:36.676Z,14.10
2023-03-30T11:08:07.483Z,14.10
2023-03-30T11:10:39.849Z,14.10
2023-03-30T11:13:14.934Z,14.00
2023-03-30T11:15:50.246Z,14.20
2023-03-30T11:18:22.821Z,14.20
2023-03-30T11:21:00.113Z,14.50
2023-03-30T11:23:38.442Z,14.50
2023-03-30T11:26:12.368Z,14.60
2023-03-30T11:28:57.282Z,14.70
2023-03-30T11:31:41.652Z,14.80
2023-03-30T11:34:21.620Z,14.60
2023-03-30T11:36:59.920Z,14.80
2023-03-30T11:39:33.241Z,14.80
2023-03-30T11:42:09.031Z,14.90
2023-03-30T11:44:37.993Z,14.90
2023-03-30T11:47:20.176Z,15.00
2023-03-30T11:50:04.625Z,15.10
2023-03-30T11:52:40.337Z,15.20
2023-03-30T11:55:39.488Z,15.50
2023-03-30T11:58:20.774Z,15.60
2023-03-30T12:00:58.480Z,15.80
2023-03-30T12:03:37.607Z,15.80
2023-03-30T12:06:23.780Z,15.50
2023-03-30T12:09:02.901Z,15.30
2023-03-30T12:11:40.304Z,15.30
2023-03-30T12:14:30.281Z,15.40
2023-03-30T12:17:03.281Z,15.40
2023-03-30T12:19:52.969Z,15.60
2023-03-30T12:22:31.358Z,15.90
2023-03-30T12:25:16.603Z,15.80
2023-03-30T12:28:11.448Z,15.60
2023-03-30T12:30:48.788Z,15.60
2023-03-30T12:33:27.909Z,15.50
2023-03-30T12:35:59.961Z,15.60
2023-03-30T12:38:38.743Z,15.50
2023-03-30T12:41:18.700Z,15.60
2023-03-30T12:44:19.050Z,15.70
2023-03-30T12:47:01.182Z,15.40
2023-03-30T12:49:44.608Z,15.50
2023-03-30T12:52:15.425Z,15.40
2023-03-30T12:55:12.766Z,15.20
2023-03-30T12:58:04.159Z,14.90
2023-03-30T13:00:46.288Z,14.80
2023-03-30T13:03:36.184Z,14.50
2023-03-30T13:06:08.009Z,14.60
2023-03-30T13:08:39.243Z,14.70
2023-03-30T13:11:15.383Z,14.80
2023-03-30T13:13:55.172Z,14.60
2023-03-30T13:17:02.013Z,14.50
2023-03-30T13:19:43.962Z,14.40
2023-03-30T13:22:30.816Z,14.30
2023-03-30T13:25:03.726Z,14.30
2023-03-30T13:27:37.301Z,14.10
2023-03-30T13:30:15.867Z,14.00
2023-03-30T13:33:06.304Z,14.00
2023-03-30T13:35:48.407Z,13.90
2023-03-30T13:38:41.156Z,13.70
2023-03-30T13:41:20.125Z,13.80
2023-03-30T13:44:03.535Z,13.60
2023-03-30T13:46:40.011Z,13.70
2023-03-30T13:49:42.505Z,13.70
2023-03-30T13:52:14.076Z,14.10
2023-03-30T13:54:43.912Z,14.00
2023-03-30T13:57:14.638Z,14.40
2023-03-30T13:59:48.320Z,14.90
2023-03-30T14:02:20.835Z,15.30
2023-03-30T14:04:51.349Z,15.90
2023-03-30T14:07:24.479Z,16.30
2023-03-30T14:10:07.135Z,16.80
2023-03-30T14:12:39.468Z,17.20
2023-03-30T14:15:18.592Z,17.60
2023-03-30T14:17:52.405Z,17.70
2023-03-30T14:20:37.074Z,17.60
2023-03-30T14:23:07.410Z,17.80
2023-03-30T14:25:39.613Z,17.50
2023-03-30T14:28:15.009Z,17.50
2023-03-30T14:30:54.357Z,17.30
2023-03-30T14:33:24.769Z,17.10
2023-03-30T14:35:56.393Z,17.00
2023-03-30T14:38:31.243Z,17.00
2023-03-30T14:40:59.909Z,16.80
2023-03-30T14:43:32.317Z,16.90
2023-03-30T14:46:07.118Z,17.00
2023-03-30T14:48:39.840Z,17.10
2023-03-30T14:51:21.901Z,17.00
2023-03-30T14:53:54.361Z,16.70
2023-03-30T14:56:26.722Z,16.60
2023-03-30T14:58:56.443Z,16.40
2023-03-30T15:01:31.782Z,16.40
2023-03-30T15:04:07.555Z,16.10
2023-03-30T15:06:38.658Z,16.00
2023-03-30T15:09:13.940Z,15.70
2023-03-30T15:11:43.818Z,15.70
2023-03-30T15:14:18.907Z,15.50
2023-03-30T15:16:53.889Z,15.30
2023-03-30T15:19:29.446Z,15.10
2023-03-30T15:22:03.128Z,15.00
2023-03-30T15:24:35.616Z,15.10
2023-03-30T15:27:07.232Z,15.00
2023-03-30T15:29:35.514Z,15.30
2023-03-30T15:32:09.102Z,15.10
2023-03-30T15:35:01.318Z,15.00
2023-03-30T15:37:30.747Z,15.10
2023-03-30T15:40:00.849Z,15.00
2023-03-30T15:42:31.505Z,15.00
2023-03-30T15:45:06.404Z,15.10
2023-03-30T15:47:35.352Z,15.20
2023-03-30T15:50:07.072Z,15.30
2023-03-30T15:52:37.567Z,15.30
2023-03-30T15:57:59.807Z,15.40
2023-03-30T16:00:32.649Z,15.40
2023-03-30T16:03:03.925Z,15.30
2023-03-30T16:05:35.098Z,15.00
2023-03-30T16:08:05.419Z,14.60
2023-03-30T16:10:35.010Z,14.30
2023-03-30T16:13:03.548Z,14.10
2023-03-30T16:15:35.388Z,14.00
2023-03-30T16:18:03.560Z,14.20
2023-03-30T16:20:36.243Z,14.40
2023-03-30T16:23:04.970Z,14.30
2023-03-30T16:25:44.031Z,14.30
2023-03-30T16:28:25.041Z,14.40
2023-03-30T16:30:56.467Z,14.50
2023-03-30T16:33:25.036Z,14.40
2023-03-30T16:35:54.936Z,14.60
2023-03-30T16:38:23.207Z,14.60
2023-03-30T16:40:53.457Z,14.80
2023-03-30T16:43:22.349Z,14.90
2023-03-30T16:45:51.287Z,15.10
2023-03-30T16:48:19.898Z,15.00
2023-03-30T16:50:51.053Z,15.10
2023-03-30T16:53:21.474Z,15.00
2023-03-30T16:55:52.036Z,15.20
2023-03-30T16:58:20.478Z,15.00
2023-03-30T17:00:53.369Z,15.00
2023-03-30T17:03:21.660Z,15.00
2023-03-30T17:05:52.669Z,15.00
2023-03-30T17:08:24.306Z,15.00
2023-03-30T17:10:55.277Z,15.00
2023-03-30T17:13:24.860Z,15.00
2023-03-30T17:15:53.841Z,14.70
2023-03-30T17:18:23.957Z,15.10
2023-03-30T17:20:55.450Z,15.10
2023-03-30T17:23:27.101Z,15.00
2023-03-30T17:25:56.809Z,14.90
2023-03-30T17:28:27.009Z,14.90
2023-03-30T17:30:58.118Z,14.90
2023-03-30T17:33:27.397Z,14.80
2023-03-30T17:35:58.011Z,14.80
2023-03-30T17:38:29.464Z,14.90
2023-03-30T17:40:57.876Z,15.00
2023-03-30T17:43:27.990Z,14.70
2023-03-30T17:45:57.044Z,14.60
2023-03-30T17:48:25.409Z,14.30
2023-03-30T17:50:53.441Z,14.30
2023-03-30T17:53:23.263Z,14.40
2023-03-30T17:55:53.881Z,14.50
2023-03-30T17:58:24.247Z,14.60
2023-03-30T18:00:53.733Z,14.60
2023-03-30T18:03:25.983Z,14.50
2023-03-30T18:05:57.476Z,14.30
2023-03-30T18:08:27.481Z,13.90
2023-03-30T18:10:59.410Z,13.90
2023-03-30T18:13:34.196Z,14.10
2023-03-30T18:16:02.706Z,14.10
2023-03-30T18:18:36.476Z,14.20
2023-03-30T18:21:06.662Z,14.20
2023-03-30T18:23:36.486Z,14.20
2023-03-30T18:26:11.148Z,14.10
2023-03-30T18:28:43.817Z,14.20
2023-03-30T18:31:13.211Z,14.30
2023-03-30T18:33:42.111Z,14.30
2023-03-30T18:36:13.240Z,14.30
2023-03-30T18:38:41.965Z,14.50
2023-03-30T18:41:13.731Z,14.60
2023-03-30T18:43:43.468Z,14.50
2023-03-30T18:46:14.099Z,14.40
2023-03-30T18:48:42.613Z,14.30
2023-03-30T18:51:12.057Z,14.20
2023-03-30T18:53:40.832Z,14.60
2023-03-30T18:56:14.684Z,14.60
2023-03-30T18:58:43.152Z,14.40
2023-03-30T19:01:13.092Z,14.40
2023-03-30T19:03:44.744Z,14.40
2023-03-30T19:06:18.348Z,14.10
2023-03-30T19:08:47.779Z,14.30
2023-03-30T19:11:20.594Z,14.50
2023-03-30T19:13:50.340Z,14.50
2023-03-30T19:16:20.043Z,14.70
2023-03-30T19:18:49.809Z,14.60
2023-03-30T19:21:19.097Z,14.30
2023-03-30T19:23:48.405Z,14.30
2023-03-30T19:26:17.821Z,14.30
2023-03-30T19:28:46.283Z,14.40
2023-03-30T19:31:16.378Z,14.30
2023-03-30T19:33:44.843Z,14.20
2023-03-30T19:36:13.342Z,14.30
2023-03-30T19:38:44.389Z,14.40
2023-03-30T19:41:13.521Z,14.30
2023-03-30T19:43:43.424Z,14.40
2023-03-30T19:46:12.568Z,14.50
2023-03-30T19:48:41.943Z,14.40
2023-03-30T19:51:09.977Z,14.30
2023-03-30T19:53:38.175Z,14.10
2023-03-30T19:56:14.709Z,14.40
2023-03-30T19:58:44.611Z,14.40
2023-03-30T20:01:13.517Z,14.30
2023-03-30T20:03:41.975Z,14.30
2023-03-30T20:06:11.656Z,14.30
2023-03-30T20:08:40.311Z,14.20
2023-03-30T20:11:08.611Z,14.30
2023-03-30T20:13:37.039Z,14.20
2023-03-30T20:16:09.376Z,14.10
2023-03-30T20:18:40.072Z,14.00
2023-03-30T20:21:09.876Z,14.20
2023-03-30T20:23:37.864Z,14.10
2023-03-30T20:26:06.376Z,14.10
2023-03-30T20:28:34.954Z,14.10
2023-03-30T20:31:03.454Z,14.00
2023-03-30T20:33:36.019Z,14.30
2023-03-30T20:36:04.286Z,14.30
2023-03-30T20:38:32.581Z,14.50
2023-03-30T20:41:04.192Z,14.30
2023-03-30T20:43:40.545Z,14.20
2023-03-30T20:46:16.298Z,14.30
2023-03-30T20:48:53.925Z,14.10
2023-03-30T20:51:24.320Z,14.20
2023-03-30T20:53:52.324Z,14.10
2023-03-30T20:56:20.836Z,14.10
2023-03-30T20:58:49.512Z,14.40
2023-03-30T21:01:19.589Z,14.50
2023-03-30T21:03:50.385Z,14.50
2023-03-30T21:06:23.909Z,14.50
2023-03-30T21:08:54.709Z,14.50
2023-03-30T21:11:26.974Z,14.50
2023-03-30T21:13:56.161Z,14.20
2023-03-30T21:16:25.466Z,14.20
2023-03-30T21:18:55.906Z,14.00
2023-03-30T21:21:23.964Z,13.90
2023-03-30T21:23:51.996Z,13.80
2023-03-30T21:26:23.969Z,13.90
2023-03-30T21:28:51.989Z,14.10
2023-03-30T21:31:22.632Z,13.90
2023-03-30T21:33:50.804Z,13.50
2023-03-30T21:36:20.451Z,13.50
2023-03-30T21:38:48.626Z,13.60
2023-03-30T21:41:18.370Z,13.70
2023-03-30T21:43:48.154Z,13.70
2023-03-30T21:46:18.710Z,13.70
2023-03-30T21:48:49.047Z,13.80
2023-03-30T21:51:21.994Z,13.60
2023-03-30T21:53:52.307Z,13.70
2023-03-30T21:56:22.179Z,13.80
2023-03-30T21:58:50.972Z,13.70
2023-03-30T22:01:20.706Z,13.60
2023-03-30T22:03:49.466Z,13.60
2023-03-30T22:06:19.236Z,13.60
2023-03-30T22:08:49.221Z,13.60
2023-03-30T22:11:20.000Z,13.60
2023-03-30T22:13:48.854Z,13.80
2023-03-30T22:16:22.848Z,13.70
2023-03-30T22:18:52.202Z,13.80
2023-03-30T22:21:22.700Z,14.00
2023-03-30T22:23:52.114Z,14.20
2023-03-30T22:26:20.682Z,14.10
2023-03-30T22:28:49.628Z,14.00
2023-03-30T22:31:17.676Z,14.10
2023-03-30T22:33:46.647Z,14.10
2023-03-30T22:36:17.222Z,14.30
2023-03-30T22:38:45.594Z,14.20
2023-03-30T22:41:16.173Z,13.70
2023-03-30T22:43:44.494Z,13.90
2023-03-30T22:46:12.759Z,13.90
2023-03-30T22:48:41.922Z,13.60
2023-03-30T22:51:14.275Z,13.80
2023-03-30T22:53:42.442Z,14.00
2023-03-30T22:56:11.537Z,13.70
2023-03-30T22:58:44.276Z,13.90
2023-03-30T23:01:14.161Z,14.00
2023-03-30T23:03:42.933Z,14.30
2023-03-30T23:06:11.021Z,14.20
2023-03-30T23:08:39.253Z,14.10
2023-03-30T23:11:08.217Z,14.10
2023-03-30T23:13:38.113Z,14.00
2023-03-30T23:16:09.017Z,14.00
2023-03-30T23:18:37.818Z,14.20
2023-03-30T23:21:07.738Z,14.20
2023-03-30T23:23:36.854Z,14.20
2023-03-30T23:26:10.059Z,14.20
2023-03-30T23:28:41.595Z,13.70
2023-03-30T23:31:13.226Z,13.60
2023-03-30T23:33:44.098Z,13.60
2023-03-30T23:36:14.295Z,13.60
2023-03-30T23:38:43.173Z,13.70
2023-03-30T23:41:15.100Z,13.70
2023-03-30T23:43:43.487Z,13.60
2023-03-30T23:46:13.343Z,13.60
2023-03-30T23:48:43.705Z,13.70
2023-03-30T23:51:12.626Z,14.00
2023-03-30T23:53:41.570Z,14.10
2023-03-30T23:56:13.268Z,14.10
2023-03-30T23:58:42.127Z,13.90
